Terminal Aerodrome Forecast
Issued by NWS

Home | Current Version | Previous Version | Text Only | Print | Product List | Glossary On
Versions: 1 2 3 4 5 6 7 8 9 10 11 12 13 14 15 16 17 18 19 20 21 22 23 24 25 26 27 28 29 30 31 32 33 34 35 36 37 38
000
FTUS43 KDMX 270520
TAFOTM
TAF
KOTM 270520Z 2706/2806 02005KT P6SM SKC
     FM270900 VRB05KT 4SM BR FEW050
     FM271000 VRB05KT 1 1/2SM BR FEW020
     FM271300 VRB05KT 3SM BR BKN060
     FM271500 10006KT P6SM BKN050
     FM272200 07008KT P6SM VCTS OVC050CB
     FM280200 04009KT P6SM -SHRA OVC050=

USA.gov is the U.S. government's official web portal to all federal, state and local government web resources and services.